»·PEaware :: N149CD KVNY-KSNA

N149CD :: KVNY-KSNA

FLIGHT INFORMATION

Flight Status: Arrived
Operator: Privately registered:
United States
More flights under this callsign
Pilot: Nathan E. (30132)
Aircraft: CESSNA 172 SKYHAWK
(C172)
More flights by this aircraft type
Origin: KVNY Van Nuys
United States
Destination: KSNA John Wayne-Orange Co
United States
More flights between these airports :: More routes between these airports
Route: ADAMM3 ADAMM V186 BAYJY V363 POXKU V8 SLI
File this flight plan on PilotEdge
Remarks: TEC route BURP20
Altitude:
(Current/Filed)
5,000ft
Speed:
(Current/Filed)
110kts
Departed: 27-Sep-20 11:45 AM
Arrived: 27-Sep-20 12:19 PM
Distance/Time
Traveled:
45nm/0:34
Distance/Time
To Go:
Arrived

Flight Plot

Page will automatically refresh every two minutes.

Flight plan parsing failed; only flown route is shown


Map Options




Map Legend


Flown Route
Filed Route
Departure Airport
Arrival Airport
Navaid (VOR, NDB)
Fix

Horizontal Profiles

Position Reports

Time Latitude Longitude Heading Altitude Ground
Speed
27-Sep-20 11:24 34.215501 -118.498360 358 806ft 0kts
27-Sep-20 11:25 34.215501 -118.498360 358 806ft 0kts
27-Sep-20 11:26 34.215501 -118.498360 358 806ft 0kts
27-Sep-20 11:27 34.215501 -118.498360 358 806ft 0kts
27-Sep-20 11:28 34.215501 -118.498360 358 806ft 0kts
27-Sep-20 11:29 34.215501 -118.498360 358 806ft 0kts
27-Sep-20 11:30 34.215501 -118.498360 358 806ft 0kts
27-Sep-20 11:31 34.215501 -118.498360 358 806ft 0kts
27-Sep-20 11:32 34.215501 -118.498360 358 806ft 0kts
27-Sep-20 11:33 34.215501 -118.498360 358 806ft 0kts
27-Sep-20 11:34 34.215501 -118.498360 358 806ft 0kts
27-Sep-20 11:35 34.215501 -118.498360 358 806ft 0kts
27-Sep-20 11:36 34.215501 -118.498360 358 806ft 0kts
27-Sep-20 11:38 34.215501 -118.498360 358 806ft 0kts
27-Sep-20 11:39 34.215501 -118.498360 358 806ft 0kts
27-Sep-20 11:40 34.217135 -118.496844 47 806ft 19kts
27-Sep-20 11:41 34.217494 -118.492279 359 806ft 12kts
27-Sep-20 11:42 34.219024 -118.492144 99 806ft 0kts
27-Sep-20 11:43 34.219024 -118.492144 99 806ft 0kts
27-Sep-20 11:44 34.217790 -118.491132 176 806ft 35kts
27-Sep-20 11:45 34.197677 -118.489190 174 1378ft 78kts
27-Sep-20 11:46 34.180388 -118.476318 124 2185ft 79kts
27-Sep-20 11:47 34.167562 -118.454548 124 2968ft 80kts
27-Sep-20 11:48 34.158039 -118.430760 103 3712ft 79kts
27-Sep-20 11:49 34.152238 -118.404958 102 4424ft 79kts
27-Sep-20 11:50 34.146338 -118.378817 102 5009ft 91kts
27-Sep-20 11:51 34.138074 -118.342834 103 5010ft 117kts
27-Sep-20 11:52 34.129356 -118.304875 103 5010ft 117kts
27-Sep-20 11:53 34.120694 -118.266954 103 5011ft 117kts
27-Sep-20 11:53 34.113473 -118.235337 103 5012ft 117kts
27-Sep-20 11:55 34.103351 -118.191070 103 5005ft 116kts
27-Sep-20 11:56 34.094707 -118.153330 103 5006ft 117kts
27-Sep-20 11:56 34.087471 -118.121798 103 5007ft 117kts
27-Sep-20 11:57 34.078754 -118.083845 103 5009ft 117kts
27-Sep-20 11:58 34.070057 -118.046037 103 5009ft 117kts
27-Sep-20 11:59 34.061269 -118.007878 102 5010ft 118kts
27-Sep-20 12:00 34.052458 -117.969678 102 5014ft 118kts
27-Sep-20 12:01 34.043542 -117.931086 102 5018ft 119kts
27-Sep-20 12:02 34.034565 -117.892160 108 5018ft 122kts
27-Sep-20 12:03 34.025407 -117.852771 108 5015ft 121kts
27-Sep-20 12:04 34.015900 -117.813564 112 4900ft 121kts
27-Sep-20 12:05 33.994366 -117.787253 169 4395ft 122kts
27-Sep-20 12:06 33.959970 -117.784107 160 4000ft 119kts
27-Sep-20 12:07 33.941130 -117.752499 119 4003ft 120kts
27-Sep-20 12:08 33.920644 -117.722313 169 3956ft 116kts
27-Sep-20 12:09 33.889667 -117.733371 204 3471ft 121kts
27-Sep-20 12:10 33.859493 -117.752038 206 2969ft 122kts
27-Sep-20 12:11 33.830543 -117.770444 206 2902ft 116kts
27-Sep-20 12:12 33.801928 -117.788670 205 2677ft 119kts
27-Sep-20 12:13 33.773566 -117.806710 205 2118ft 112kts
27-Sep-20 12:14 33.746603 -117.823839 205 1533ft 108kts
27-Sep-20 12:15 33.720610 -117.840358 205 981ft 93kts
27-Sep-20 12:16 33.703671 -117.851088 204 583ft 64kts
27-Sep-20 12:17 33.686695 -117.861844 204 215ft 59kts
27-Sep-20 12:18 33.677353 -117.866687 118 60ft 0kts
27-Sep-20 12:19 33.676537 -117.865545 207 60ft 13kts
27-Sep-20 12:20 33.672854 -117.867581 223 60ft 15kts
27-Sep-20 12:21 33.668750 -117.871300 220 60ft 20kts
27-Sep-20 12:22 33.665899 -117.873086 131 60ft 0kts
27-Sep-20 12:23 33.665899 -117.873086 131 60ft 0kts

Navigation Log

Ident Type
Flight plan parsing failed, navigation log unavailable